createdAt,value
2019-01-12T00:03:05.100Z,8.83
2019-01-12T00:06:27.764Z,10.07
2019-01-12T00:09:50.203Z,9.97
2019-01-12T00:13:12.476Z,8.13
2019-01-12T00:16:34.744Z,8.33
2019-01-12T00:19:57.465Z,9.27
2019-01-12T00:23:19.685Z,8.90
2019-01-12T00:26:42.180Z,9.93
2019-01-12T00:30:05.847Z,8.70
2019-01-12T00:33:28.353Z,8.87
2019-01-12T00:36:50.819Z,9.00
2019-01-12T00:40:13.701Z,9.40
2019-01-12T00:43:36.108Z,9.50
2019-01-12T00:46:58.854Z,9.50
2019-01-12T00:50:21.508Z,9.27
2019-01-12T00:53:44.482Z,8.50
2019-01-12T00:57:07.477Z,8.43
2019-01-12T01:00:31.706Z,7.97
2019-01-12T01:03:55.352Z,8.47
2019-01-12T01:07:18.122Z,9.80
2019-01-12T01:10:40.762Z,9.23
2019-01-12T01:14:03.612Z,9.70
2019-01-12T01:17:26.048Z,8.37
2019-01-12T01:20:48.769Z,8.27
2019-01-12T01:24:11.448Z,9.03
2019-01-12T01:27:34.547Z,10.23
2019-01-12T01:30:57.169Z,10.03
2019-01-12T01:34:19.908Z,8.40
2019-01-12T01:37:42.534Z,9.03
2019-01-12T01:41:05.076Z,8.63
2019-01-12T01:44:27.529Z,9.23
2019-01-12T01:47:50.046Z,8.47
2019-01-12T01:51:12.379Z,8.33
2019-01-12T01:54:34.417Z,9.10
2019-01-12T01:57:57.093Z,9.83
2019-01-12T02:01:19.536Z,8.10
2019-01-12T02:04:42.417Z,9.40
2019-01-12T02:08:05.205Z,9.17
2019-01-12T02:11:27.645Z,8.87
2019-01-12T02:14:50.046Z,9.00
2019-01-12T02:18:12.881Z,9.67
2019-01-12T02:21:35.326Z,8.80
2019-01-12T02:25:00.146Z,8.60
2019-01-12T02:28:21.877Z,8.60
2019-01-12T02:31:44.473Z,8.60
2019-01-12T02:35:07.184Z,8.30
2019-01-12T02:38:29.280Z,8.07
2019-01-12T02:41:51.789Z,8.30
2019-01-12T02:45:14.294Z,8.20
2019-01-12T02:48:36.694Z,9.00
2019-01-12T02:51:59.176Z,7.73
2019-01-12T02:55:21.640Z,7.47
2019-01-12T02:58:44.497Z,7.27
2019-01-12T03:02:07.153Z,8.03
2019-01-12T03:05:29.652Z,8.07
2019-01-12T03:08:52.172Z,7.70
2019-01-12T03:12:14.650Z,7.97
2019-01-12T03:15:37.412Z,7.40
2019-01-12T03:18:59.807Z,8.27
2019-01-12T03:22:22.193Z,8.23
2019-01-12T03:25:44.830Z,7.03
2019-01-12T03:29:07.280Z,7.40
2019-01-12T03:32:29.826Z,8.23
2019-01-12T03:35:52.466Z,8.33
2019-01-12T03:39:14.552Z,8.57
2019-01-12T03:42:36.926Z,9.23
2019-01-12T03:45:59.504Z,7.87
2019-01-12T03:49:21.574Z,8.50
2019-01-12T03:52:44.024Z,7.77
2019-01-12T03:56:06.802Z,8.93
2019-01-12T03:59:28.961Z,8.30
2019-01-12T04:02:51.397Z,8.57
2019-01-12T04:06:13.818Z,9.47
2019-01-12T04:09:35.942Z,8.43
2019-01-12T04:12:58.455Z,9.53
2019-01-12T04:16:21.219Z,8.63
2019-01-12T04:19:43.741Z,8.13
2019-01-12T04:23:06.333Z,9.27
2019-01-12T04:26:28.674Z,8.20
2019-01-12T04:29:51.244Z,10.00
2019-01-12T04:33:13.930Z,8.13
2019-01-12T04:36:36.424Z,8.80
2019-01-12T04:39:58.633Z,8.20
2019-01-12T04:43:21.288Z,8.67
2019-01-12T04:46:43.341Z,9.43
2019-01-12T04:50:08.389Z,8.17
2019-01-12T04:53:31.057Z,9.33
2019-01-12T04:56:53.269Z,8.77
2019-01-12T05:00:19.652Z,7.93
2019-01-12T05:03:42.325Z,7.67
2019-01-12T05:07:04.994Z,7.73
2019-01-12T05:10:27.253Z,10.07
2019-01-12T05:13:49.710Z,7.13
2019-01-12T05:17:12.118Z,7.80
2019-01-12T05:20:34.809Z,7.80
2019-01-12T05:23:57.210Z,7.73
2019-01-12T05:27:19.562Z,7.93
2019-01-12T05:30:42.112Z,8.30
2019-01-12T05:34:04.555Z,8.67
2019-01-12T05:37:27.002Z,8.27
2019-01-12T05:40:49.757Z,7.00
2019-01-12T05:44:12.181Z,8.20
2019-01-12T05:47:34.506Z,8.03
2019-01-12T05:50:56.992Z,7.57
2019-01-12T05:54:19.201Z,8.27
2019-01-12T05:57:41.637Z,7.77
2019-01-12T06:01:03.917Z,6.07
2019-01-12T06:04:26.403Z,6.70
2019-01-12T06:07:49.049Z,6.60
2019-01-12T06:11:11.561Z,7.30
2019-01-12T06:14:34.201Z,9.27
2019-01-12T06:17:56.798Z,7.87
2019-01-12T06:21:19.829Z,7.07
2019-01-12T06:24:42.421Z,6.30
2019-01-12T06:28:04.984Z,5.90
2019-01-12T06:31:27.784Z,6.00
2019-01-12T06:34:50.321Z,6.93
2019-01-12T06:38:13.080Z,6.53
2019-01-12T06:41:35.515Z,6.97
2019-01-12T06:44:58.213Z,7.50
2019-01-12T06:48:20.761Z,7.00
2019-01-12T06:51:43.229Z,5.47
2019-01-12T06:55:07.413Z,6.23
2019-01-12T06:58:30.144Z,6.73
2019-01-12T07:01:52.524Z,6.87
2019-01-12T07:05:14.945Z,5.30
2019-01-12T07:08:37.346Z,5.53
2019-01-12T07:11:59.626Z,5.90
2019-01-12T07:15:22.021Z,5.50
2019-01-12T07:18:44.480Z,5.80
2019-01-12T07:22:07.034Z,5.90
2019-01-12T07:25:29.704Z,8.13
2019-01-12T07:28:52.495Z,6.10
2019-01-12T07:32:15.191Z,5.37
2019-01-12T07:35:37.744Z,6.47
2019-01-12T07:39:00.165Z,6.10
2019-01-12T07:42:22.815Z,5.50
2019-01-12T07:45:45.076Z,7.07
2019-01-12T07:49:07.545Z,6.03
2019-01-12T07:52:30.198Z,6.57
2019-01-12T07:55:52.660Z,6.63
2019-01-12T07:59:15.226Z,6.40
2019-01-12T08:02:37.930Z,6.73
2019-01-12T08:06:00.237Z,6.93
2019-01-12T08:09:22.801Z,6.00
2019-01-12T08:12:45.296Z,6.60
2019-01-12T08:16:07.871Z,8.30
2019-01-12T08:19:30.277Z,7.37
2019-01-12T08:22:53.663Z,7.03
2019-01-12T08:26:16.685Z,7.03
2019-01-12T08:29:39.103Z,7.10
2019-01-12T08:33:01.761Z,6.17
2019-01-12T08:36:24.521Z,6.73
2019-01-12T08:39:47.125Z,6.77
2019-01-12T08:43:09.160Z,6.77
2019-01-12T08:46:31.572Z,6.37
2019-01-12T08:49:54.259Z,6.50
2019-01-12T08:53:16.617Z,8.70
2019-01-12T08:56:39.186Z,5.73
2019-01-12T09:00:01.625Z,7.23
2019-01-12T09:03:24.165Z,6.30
2019-01-12T09:06:46.328Z,6.70
2019-01-12T09:10:11.516Z,7.27
2019-01-12T09:13:33.923Z,6.47
2019-01-12T09:16:56.342Z,7.27
2019-01-12T09:20:18.845Z,6.27
2019-01-12T09:23:40.874Z,7.20
2019-01-12T09:27:03.403Z,7.47
2019-01-12T09:30:25.960Z,7.57
2019-01-12T09:33:48.740Z,7.97
2019-01-12T09:37:11.235Z,8.03
2019-01-12T09:40:33.931Z,8.73
2019-01-12T09:43:56.360Z,6.70
2019-01-12T09:47:19.057Z,7.23
2019-01-12T09:50:41.660Z,5.73
2019-01-12T09:54:04.345Z,6.87
2019-01-12T09:57:26.944Z,5.60
2019-01-12T10:00:49.505Z,6.27
2019-01-12T10:04:12.328Z,7.47
2019-01-12T10:07:34.612Z,5.63
2019-01-12T10:10:56.766Z,4.63
2019-01-12T10:14:19.152Z,5.27
2019-01-12T10:17:41.656Z,5.10
2019-01-12T10:21:04.145Z,3.77
2019-01-12T10:24:26.702Z,3.83
2019-01-12T10:27:49.283Z,4.13
2019-01-12T10:31:12.060Z,3.57
2019-01-12T10:34:34.838Z,3.50
2019-01-12T10:37:57.360Z,3.50
2019-01-12T10:41:19.468Z,3.40
2019-01-12T10:44:41.558Z,3.27
2019-01-12T10:48:04.605Z,3.57
2019-01-12T10:51:26.738Z,4.07
2019-01-12T10:54:49.409Z,3.53
2019-01-12T10:58:12.116Z,3.50
2019-01-12T11:01:34.717Z,3.43
2019-01-12T11:04:57.169Z,3.10
2019-01-12T11:08:19.668Z,4.40
2019-01-12T11:11:42.237Z,3.80
2019-01-12T11:15:05.558Z,3.47
2019-01-12T11:18:27.715Z,3.67
2019-01-12T11:21:50.532Z,4.20
2019-01-12T11:25:13.585Z,3.63
2019-01-12T11:28:36.924Z,4.17
2019-01-12T11:31:59.818Z,3.80
2019-01-12T11:35:22.170Z,3.60
2019-01-12T11:38:45.098Z,3.60
2019-01-12T11:42:08.072Z,3.40
2019-01-12T11:45:30.305Z,3.23
2019-01-12T11:48:52.616Z,3.00
2019-01-12T11:52:15.223Z,2.97
2019-01-12T11:55:37.482Z,3.60
2019-01-12T11:58:59.833Z,3.40
2019-01-12T12:02:22.268Z,2.90
2019-01-12T12:05:44.737Z,3.40
2019-01-12T12:09:08.556Z,4.00
2019-01-12T12:12:31.305Z,3.00
2019-01-12T12:15:53.680Z,4.00
2019-01-12T12:19:16.352Z,4.27
2019-01-12T12:22:38.760Z,4.57
2019-01-12T12:26:01.530Z,3.87
2019-01-12T12:29:24.021Z,4.00
2019-01-12T12:32:46.640Z,4.43
2019-01-12T12:36:08.765Z,4.60
2019-01-12T12:39:31.461Z,4.30
2019-01-12T12:42:55.336Z,4.17
2019-01-12T12:46:18.261Z,3.97
2019-01-12T12:49:41.036Z,4.47
2019-01-12T12:53:03.504Z,3.87
2019-01-12T12:56:26.249Z,4.07
2019-01-12T12:59:48.353Z,4.10
2019-01-12T13:03:10.890Z,4.50
2019-01-12T13:06:33.723Z,4.03
2019-01-12T13:09:56.476Z,3.60
2019-01-12T13:13:19.160Z,3.90
2019-01-12T13:16:41.596Z,3.90
2019-01-12T13:20:05.881Z,3.90
2019-01-12T13:23:28.326Z,4.53
2019-01-12T13:26:50.773Z,3.93
2019-01-12T13:30:19.053Z,5.30
2019-01-12T13:33:41.170Z,4.00
2019-01-12T13:37:03.952Z,3.60
2019-01-12T13:40:28.017Z,3.63
2019-01-12T13:43:50.724Z,4.57
2019-01-12T13:47:12.780Z,4.23
2019-01-12T13:50:35.494Z,5.13
2019-01-12T13:53:57.830Z,4.67
2019-01-12T13:57:20.637Z,5.40
2019-01-12T14:00:43.419Z,5.50
2019-01-12T14:04:05.824Z,5.97
2019-01-12T14:07:28.336Z,5.30
2019-01-12T14:10:50.638Z,5.83
2019-01-12T14:14:13.421Z,5.47
2019-01-12T14:17:35.717Z,6.10
2019-01-12T14:20:58.629Z,6.30
2019-01-12T14:24:21.197Z,6.67
2019-01-12T14:27:43.739Z,7.70
2019-01-12T14:31:06.136Z,7.47
2019-01-12T14:34:28.825Z,7.20
2019-01-12T14:37:51.417Z,6.77
2019-01-12T14:41:13.603Z,7.40
2019-01-12T14:44:36.301Z,8.67
2019-01-12T14:47:58.527Z,8.57
2019-01-12T14:51:20.950Z,8.47
2019-01-12T14:54:43.418Z,9.07
2019-01-12T14:58:06.776Z,8.67
2019-01-12T15:01:29.109Z,9.17
2019-01-12T15:04:51.516Z,9.87
2019-01-12T15:08:14.118Z,8.60
2019-01-12T15:11:36.514Z,8.93
2019-01-12T15:14:59.005Z,8.70
2019-01-12T15:18:21.384Z,9.03
2019-01-12T15:21:43.790Z,10.03
2019-01-12T15:25:06.646Z,9.27
2019-01-12T15:28:29.257Z,9.27
2019-01-12T15:31:51.410Z,9.23
2019-01-12T15:35:14.585Z,10.07
2019-01-12T15:38:37.356Z,11.50
2019-01-12T15:41:59.804Z,10.77
2019-01-12T15:45:23.696Z,10.17
2019-01-12T15:48:46.381Z,9.80
2019-01-12T15:52:09.068Z,10.07
2019-01-12T15:55:31.668Z,10.40
2019-01-12T15:58:54.680Z,12.63
2019-01-12T16:02:17.645Z,11.63
2019-01-12T16:05:40.264Z,11.60
2019-01-12T16:09:02.569Z,11.77
2019-01-12T16:12:25.448Z,12.27
2019-01-12T16:15:48.007Z,12.70
2019-01-12T16:19:10.360Z,12.93
2019-01-12T16:22:32.986Z,17.80
2019-01-12T16:25:55.529Z,11.33
2019-01-12T16:29:17.844Z,13.00
2019-01-12T16:32:40.660Z,13.03
2019-01-12T16:36:03.537Z,11.70
2019-01-12T16:39:26.009Z,12.17
2019-01-12T16:42:48.492Z,12.00
2019-01-12T16:46:10.987Z,11.57
2019-01-12T16:49:32.880Z,11.60
2019-01-12T16:52:55.073Z,10.73
2019-01-12T16:56:17.278Z,11.13
2019-01-12T16:59:39.176Z,10.93
2019-01-12T17:03:01.420Z,11.57
2019-01-12T17:06:23.480Z,10.87
2019-01-12T17:09:45.949Z,10.87
2019-01-12T17:13:08.190Z,11.03
2019-01-12T17:16:30.493Z,10.47
2019-01-12T17:19:53.585Z,11.90
2019-01-12T17:23:16.216Z,11.63
2019-01-12T17:26:38.845Z,12.43
2019-01-12T17:30:01.133Z,12.73
2019-01-12T17:33:23.286Z,12.47
2019-01-12T17:36:45.403Z,13.37
2019-01-12T17:40:09.101Z,13.30
2019-01-12T17:43:31.009Z,14.07
2019-01-12T17:46:52.896Z,15.33
2019-01-12T17:50:17.045Z,15.60
2019-01-12T17:53:39.246Z,15.73
2019-01-12T17:57:01.437Z,19.30
2019-01-12T18:00:36.988Z,17.17
2019-01-12T18:03:59.325Z,19.37
2019-01-12T18:07:21.589Z,17.77
2019-01-12T18:10:43.570Z,19.97
2019-01-12T18:14:05.997Z,19.03
2019-01-12T18:17:28.240Z,19.40
2019-01-12T18:20:50.647Z,19.67
2019-01-12T18:24:13.248Z,19.37
2019-01-12T18:27:35.884Z,20.20
2019-01-12T18:30:58.232Z,18.73
2019-01-12T18:34:20.709Z,19.57
2019-01-12T18:37:42.952Z,17.93
2019-01-12T18:41:05.442Z,17.70
2019-01-12T18:44:27.605Z,17.60
2019-01-12T18:47:55.825Z,17.17
2019-01-12T18:51:18.076Z,17.30
2019-01-12T18:54:40.580Z,18.20
2019-01-12T18:58:03.280Z,17.97
2019-01-12T19:01:25.777Z,17.27
2019-01-12T19:04:48.000Z,19.70
2019-01-12T19:08:10.238Z,18.43
2019-01-12T19:11:32.329Z,17.87
2019-01-12T19:14:54.305Z,19.27
2019-01-12T19:18:16.510Z,21.80
2019-01-12T19:21:38.681Z,17.83
2019-01-12T19:25:00.800Z,17.87
2019-01-12T19:28:22.949Z,17.50
2019-01-12T19:31:45.088Z,16.83
2019-01-12T19:35:07.352Z,14.30
2019-01-12T19:38:29.777Z,15.67
2019-01-12T19:41:51.974Z,15.00
2019-01-12T19:45:14.837Z,14.13
2019-01-12T19:48:37.342Z,13.43
2019-01-12T19:51:59.541Z,11.43
2019-01-12T19:55:21.797Z,13.53
2019-01-12T19:58:44.154Z,13.17
2019-01-12T20:02:06.966Z,10.37
2019-01-12T20:05:29.210Z,9.50
2019-01-12T20:08:51.205Z,10.50
2019-01-12T20:12:13.424Z,9.80
2019-01-12T20:15:35.809Z,9.50
2019-01-12T20:18:58.120Z,9.27
2019-01-12T20:22:20.622Z,9.40
2019-01-12T20:25:42.872Z,9.73
2019-01-12T20:29:05.355Z,9.13
2019-01-12T20:33:20.734Z,9.37
2019-01-12T20:37:34.450Z,9.00
2019-01-12T20:41:30.771Z,9.77
2019-01-12T20:45:34.757Z,8.97
2019-01-12T20:49:46.640Z,9.67
2019-01-12T20:53:25.336Z,9.40
2019-01-12T20:57:04.022Z,9.10
2019-01-12T21:00:46.809Z,8.60
2019-01-12T21:04:49.370Z,8.77
2019-01-12T21:08:29.518Z,8.37
2019-01-12T21:12:10.157Z,7.70
2019-01-12T21:15:36.884Z,6.93
2019-01-12T21:18:58.906Z,7.17
2019-01-12T21:22:21.394Z,7.50
2019-01-12T21:25:43.592Z,7.27
2019-01-12T21:29:05.942Z,7.33
2019-01-12T21:32:28.171Z,5.63
2019-01-12T21:35:50.442Z,5.43
2019-01-12T21:39:12.679Z,6.30
2019-01-12T21:42:34.808Z,6.80
2019-01-12T21:45:57.291Z,7.23
2019-01-12T21:49:19.565Z,7.47
2019-01-12T21:52:42.052Z,7.53
2019-01-12T21:56:04.299Z,9.17
2019-01-12T21:59:26.212Z,10.57
2019-01-12T22:02:48.367Z,7.70
2019-01-12T22:06:10.672Z,6.83
2019-01-12T22:09:32.926Z,5.90
2019-01-12T22:12:55.318Z,5.37
2019-01-12T22:16:17.477Z,6.67
2019-01-12T22:19:39.909Z,5.93
2019-01-12T22:23:01.953Z,5.67
2019-01-12T22:26:23.929Z,6.03
2019-01-12T22:29:49.977Z,6.23
2019-01-12T22:33:10.005Z,5.33
2019-01-12T22:36:32.360Z,5.43
2019-01-12T22:39:54.932Z,6.03
2019-01-12T22:43:17.197Z,7.07
2019-01-12T22:46:39.412Z,6.20
2019-01-12T22:50:01.344Z,7.10
2019-01-12T22:53:23.782Z,6.67
2019-01-12T22:56:46.034Z,6.90
2019-01-12T23:00:29.134Z,5.87
2019-01-12T23:03:51.188Z,5.43
2019-01-12T23:07:13.663Z,7.00
2019-01-12T23:10:35.878Z,6.33
2019-01-12T23:13:58.301Z,4.70
2019-01-12T23:17:20.718Z,5.10
2019-01-12T23:20:42.917Z,5.77
2019-01-12T23:24:06.081Z,4.67
2019-01-12T23:27:27.957Z,4.50
2019-01-12T23:30:50.161Z,4.27
2019-01-12T23:34:12.505Z,4.03
2019-01-12T23:37:34.690Z,3.90
2019-01-12T23:40:56.825Z,3.80
2019-01-12T23:44:19.042Z,3.50
2019-01-12T23:47:41.170Z,4.00
2019-01-12T23:51:03.692Z,3.60
2019-01-12T23:54:26.032Z,3.50
2019-01-12T23:57:48.310Z,3.10
